createdAt,value
2016-12-22T10:54:54.242Z,1023.28
2016-12-22T10:55:54.172Z,1023.27
2016-12-22T10:56:54.109Z,1023.29
2016-12-22T10:57:54.045Z,1023.28
2016-12-22T10:58:53.984Z,1023.3
2016-12-22T10:59:53.920Z,1023.29
2016-12-22T11:00:53.858Z,1023.28
2016-12-22T11:01:53.795Z,1023.26
2016-12-22T11:02:53.733Z,1023.26
2016-12-22T11:03:53.669Z,1023.25
2016-12-22T11:04:53.606Z,1023.18
2016-12-22T11:05:53.544Z,1023.16
2016-12-22T11:06:53.489Z,1023.16
2016-12-22T11:07:53.419Z,1023.17
2016-12-22T11:08:53.355Z,1023.15
2016-12-22T11:09:53.292Z,1023.14
2016-12-22T11:10:53.232Z,1023.09
2016-12-22T11:11:53.168Z,1023.1
2016-12-22T11:12:53.104Z,1023.09
2016-12-22T11:13:53.050Z,1023.09
2016-12-22T11:14:52.980Z,1023.11
2016-12-22T11:15:52.916Z,1023.1
2016-12-22T11:16:52.853Z,1023.02
2016-12-22T11:17:52.792Z,1023.03
2016-12-22T11:18:52.728Z,1023.04
2016-12-22T11:19:52.665Z,1023.06
2016-12-22T11:20:52.602Z,1023.07
2016-12-22T11:21:52.540Z,1023.08
2016-12-22T11:22:52.477Z,1023.06
2016-12-22T11:23:52.413Z,1023
2016-12-22T11:24:52.351Z,1023
2016-12-22T11:25:52.290Z,1022.96
2016-12-22T11:26:52.226Z,1022.98
2016-12-22T11:27:52.166Z,1023
2016-12-22T11:28:52.100Z,1022.97
2016-12-22T11:29:52.038Z,1023
2016-12-22T11:30:51.978Z,1022.96
2016-12-22T11:31:51.913Z,1022.99
2016-12-22T11:32:51.849Z,1022.94
2016-12-22T11:33:51.789Z,1022.93
2016-12-22T11:34:51.723Z,1023
2016-12-22T11:35:51.662Z,1022.96
2016-12-22T11:36:51.597Z,1022.96
2016-12-22T11:37:51.534Z,1022.94
2016-12-22T11:38:51.472Z,1022.91
2016-12-22T11:39:51.412Z,1022.94
2016-12-22T11:40:51.347Z,1022.97
2016-12-22T11:41:51.283Z,1022.99
2016-12-22T11:42:51.235Z,1023.01
2016-12-22T11:43:51.158Z,1023
2016-12-22T11:44:51.099Z,1022.94
2016-12-22T11:45:51.032Z,1022.98
2016-12-22T11:46:50.969Z,1022.92
2016-12-22T11:47:50.907Z,1022.96
2016-12-22T11:48:50.843Z,1022.99
2016-12-22T11:49:50.781Z,1023
2016-12-22T11:50:50.718Z,1022.94
2016-12-22T11:51:50.656Z,1022.97
2016-12-22T11:52:50.592Z,1022.95
2016-12-22T11:53:50.530Z,1022.94
2016-12-22T11:54:50.468Z,1022.93
2016-12-22T11:55:50.405Z,1022.95
2016-12-22T11:56:50.341Z,1022.98
2016-12-22T11:57:50.279Z,1022.94
2016-12-22T11:58:50.217Z,1022.95
2016-12-22T11:59:50.152Z,1022.88
2016-12-22T12:00:50.090Z,1022.92
2016-12-22T12:01:50.027Z,1022.93
2016-12-22T12:02:49.965Z,1022.91
2016-12-22T12:03:49.904Z,1022.94
2016-12-22T12:04:49.839Z,1022.91
2016-12-22T12:05:49.776Z,1022.91
2016-12-22T12:06:49.713Z,1022.9
2016-12-22T12:07:49.653Z,1022.89
2016-12-22T12:08:49.587Z,1022.91
2016-12-22T12:09:49.525Z,1022.91
2016-12-22T12:10:49.511Z,1022.94
2016-12-22T12:11:49.408Z,1022.88
2016-12-22T12:12:49.336Z,1022.88
2016-12-22T12:13:49.273Z,1022.88
2016-12-22T12:14:49.210Z,1022.88
2016-12-22T12:15:49.148Z,1022.9
2016-12-22T12:16:49.085Z,1022.88
2016-12-22T12:17:49.023Z,1022.88
2016-12-22T12:18:48.959Z,1022.89
2016-12-22T12:19:48.897Z,1022.94
2016-12-22T12:20:48.834Z,1022.96
2016-12-22T12:21:48.771Z,1022.91
2016-12-22T12:22:48.708Z,1022.93
2016-12-22T12:23:48.646Z,1022.95
2016-12-22T12:24:48.582Z,1022.95
2016-12-22T12:25:48.520Z,1022.96
2016-12-22T12:26:48.457Z,1022.97
2016-12-22T12:27:48.394Z,1022.98
2016-12-22T12:28:48.332Z,1023
2016-12-22T12:29:48.269Z,1023.03
2016-12-22T12:30:48.252Z,1023.01
2016-12-22T12:31:48.150Z,1023.04
2016-12-22T12:32:48.080Z,1023.01
2016-12-22T12:33:48.055Z,1023.04
2016-12-22T12:34:47.958Z,1023.03
2016-12-22T12:35:47.892Z,1023.04
2016-12-22T12:36:47.840Z,1022.99
2016-12-22T12:37:47.773Z,1022.98
2016-12-22T12:38:47.754Z,1023.01
2016-12-22T12:39:47.650Z,1022.97
2016-12-22T12:40:47.604Z,1023.01
2016-12-22T12:41:47.563Z,1023.06
2016-12-22T12:42:47.477Z,1023.01
2016-12-22T12:43:47.388Z,1023.06
2016-12-22T12:44:47.335Z,1023.11
2016-12-22T12:45:47.273Z,1023.1
2016-12-22T12:46:47.219Z,1023.07
2016-12-22T12:47:47.140Z,1023.1
2016-12-22T12:48:47.076Z,1023.11
2016-12-22T12:49:47.045Z,1023.12
2016-12-22T12:50:46.965Z,1023.05
2016-12-22T12:51:46.886Z,1023.05
2016-12-22T12:52:46.863Z,1023.08
2016-12-22T12:53:46.793Z,1023.06
2016-12-22T12:54:46.749Z,1023.1
2016-12-22T12:55:46.661Z,1023.11
2016-12-22T12:56:46.587Z,1023.09
2016-12-22T12:57:46.508Z,1023.07
2016-12-22T12:58:46.448Z,1023.05
2016-12-22T12:59:46.383Z,1023.04
2016-12-22T13:00:46.320Z,1023.06
2016-12-22T13:01:46.273Z,1023.02
2016-12-22T13:02:46.232Z,1023.04
2016-12-22T13:03:46.163Z,1023.01
2016-12-22T13:04:46.114Z,1023.01
2016-12-22T13:05:46.020Z,1023.05
2016-12-22T13:06:45.955Z,1023.08
2016-12-22T13:07:45.880Z,1023.09
2016-12-22T13:08:45.821Z,1023.07
2016-12-22T13:09:45.754Z,1023.07
2016-12-22T13:10:45.690Z,1023.11
2016-12-22T13:11:45.630Z,1023.08
2016-12-22T13:12:45.565Z,1023.13
2016-12-22T13:13:45.503Z,1023.09
2016-12-22T13:14:45.438Z,1023.08
2016-12-22T13:15:45.378Z,1023.07
2016-12-22T13:16:45.320Z,1023.08
2016-12-22T13:17:45.251Z,1023.09
2016-12-22T13:18:45.188Z,1023.1
2016-12-22T13:19:45.125Z,1023.1
2016-12-22T13:20:45.061Z,1023.13
2016-12-22T13:21:44.998Z,1023.14
2016-12-22T13:22:44.936Z,1023.13
2016-12-22T13:23:44.872Z,1023.14
2016-12-22T13:24:44.809Z,1023.09
2016-12-22T13:25:44.746Z,1023.11
2016-12-22T13:26:44.684Z,1023.08
2016-12-22T13:27:44.626Z,1023.11
2016-12-22T13:28:44.560Z,1023.09
2016-12-22T13:29:44.507Z,1023.05
2016-12-22T13:30:44.433Z,1023.02
2016-12-22T13:31:44.371Z,1023.07
2016-12-22T13:32:44.306Z,1023.06
2016-12-22T13:33:44.244Z,1023.05
2016-12-22T13:34:44.193Z,1023.1
2016-12-22T13:35:44.121Z,1023.1
2016-12-22T13:36:44.266Z,1023.09
2016-12-22T13:37:43.991Z,1023.07
2016-12-22T13:38:43.928Z,1023.04
2016-12-22T13:39:43.866Z,1023.08
2016-12-22T13:40:43.803Z,1023.09
2016-12-22T13:41:43.781Z,1023.1
2016-12-22T13:42:43.700Z,1023.12
2016-12-22T13:43:43.672Z,1023.09
2016-12-22T13:44:43.550Z,1023.13
2016-12-22T13:45:43.573Z,1023.12
2016-12-22T13:46:43.442Z,1023.1
2016-12-22T13:47:43.361Z,1023.1
2016-12-22T13:48:43.300Z,1023.1
2016-12-22T13:49:43.238Z,1023.14
2016-12-22T13:50:43.186Z,1023.14
2016-12-22T13:51:43.110Z,1023.1
2016-12-22T13:52:43.052Z,1023.08
2016-12-22T13:53:42.985Z,1023.09
2016-12-22T13:54:42.921Z,1023.06
2016-12-22T13:55:43.007Z,1023.12
2016-12-22T13:56:42.795Z,1023.15
2016-12-22T13:57:42.731Z,1023.14
2016-12-22T13:58:42.669Z,1023.11
2016-12-22T13:59:42.616Z,1023.13
2016-12-22T14:00:42.693Z,1023.16
2016-12-22T14:01:42.479Z,1023.14
2016-12-22T14:02:42.417Z,1023.2
2016-12-22T14:03:42.354Z,1023.22
2016-12-22T14:04:42.292Z,1023.23
2016-12-22T14:05:42.229Z,1023.22
2016-12-22T14:06:42.166Z,1023.22
2016-12-22T14:07:42.105Z,1023.24
2016-12-22T14:08:42.042Z,1023.25
2016-12-22T14:09:41.977Z,1023.26
2016-12-22T14:10:41.964Z,1023.3
2016-12-22T14:11:41.857Z,1023.31
2016-12-22T14:12:41.787Z,1023.31
2016-12-22T14:13:41.725Z,1023.32
2016-12-22T14:14:41.671Z,1023.29
2016-12-22T14:15:41.608Z,1023.32
2016-12-22T14:16:41.589Z,1023.33
2016-12-22T14:17:41.472Z,1023.29
2016-12-22T14:18:41.409Z,1023.35
2016-12-22T14:19:41.347Z,1023.3
2016-12-22T14:20:41.283Z,1023.32
2016-12-22T14:21:41.225Z,1023.32
2016-12-22T14:22:41.156Z,1023.33
2016-12-22T14:23:41.093Z,1023.33
2016-12-22T14:24:41.031Z,1023.36
2016-12-22T14:25:40.967Z,1023.42
2016-12-22T14:26:40.908Z,1023.39
2016-12-22T14:27:40.842Z,1023.44
2016-12-22T14:28:40.779Z,1023.42
2016-12-22T14:29:40.719Z,1023.4
2016-12-22T14:30:40.802Z,1023.41
2016-12-22T14:31:40.589Z,1023.42
2016-12-22T14:32:40.527Z,1023.44
2016-12-22T14:33:40.463Z,1023.45
2016-12-22T14:34:40.400Z,1023.44
2016-12-22T14:35:40.338Z,1023.4
2016-12-22T14:36:40.278Z,1023.38
2016-12-22T14:37:40.212Z,1023.37
2016-12-22T14:38:40.152Z,1023.41
2016-12-22T14:39:40.086Z,1023.4
2016-12-22T14:40:40.026Z,1023.38
2016-12-22T14:41:39.959Z,1023.37
2016-12-22T14:42:39.897Z,1023.36
2016-12-22T14:43:39.834Z,1023.38
2016-12-22T14:44:39.770Z,1023.38
2016-12-22T14:45:39.708Z,1023.39
2016-12-22T14:46:39.645Z,1023.36
2016-12-22T14:47:39.585Z,1023.34
2016-12-22T14:48:39.518Z,1023.38
2016-12-22T14:49:39.456Z,1023.34
2016-12-22T14:50:39.393Z,1023.42
2016-12-22T14:51:39.328Z,1023.45
2016-12-22T14:52:39.267Z,1023.61
2016-12-22T14:53:39.206Z,1023.72
2016-12-22T14:54:39.141Z,1023.76
2016-12-22T14:55:39.227Z,1023.73
2016-12-22T14:56:39.015Z,1023.76
2016-12-22T14:57:38.952Z,1023.46
2016-12-22T14:58:38.888Z,1023.44
2016-12-22T14:59:38.825Z,1023.47
2016-12-22T15:00:38.763Z,1023.48
2016-12-22T15:01:38.700Z,1023.47
2016-12-22T15:02:38.637Z,1023.47
2016-12-22T15:03:38.579Z,1023.45
2016-12-22T15:04:38.512Z,1023.68
2016-12-22T15:05:38.449Z,1023.68
2016-12-22T15:06:38.385Z,1023.73
2016-12-22T15:07:38.323Z,1023.76
2016-12-22T15:08:38.263Z,1023.72
2016-12-22T15:09:38.196Z,1023.76
2016-12-22T15:10:38.284Z,1023.78
2016-12-22T15:11:38.071Z,1023.78
2016-12-22T15:12:38.008Z,1023.79
2016-12-22T15:13:37.945Z,1023.83
2016-12-22T15:14:37.882Z,1023.8
2016-12-22T15:15:37.820Z,1023.81
2016-12-22T15:16:37.758Z,1023.81
2016-12-22T15:17:37.693Z,1023.59
2016-12-22T15:18:37.630Z,1023.54
2016-12-22T15:19:37.569Z,1023.56
2016-12-22T15:20:37.505Z,1023.56
2016-12-22T15:21:37.451Z,1023.55
2016-12-22T15:22:37.379Z,1023.51
2016-12-22T15:23:37.316Z,1023.52
2016-12-22T15:24:37.256Z,1023.46
2016-12-22T15:25:37.192Z,1023.47
2016-12-22T15:26:37.137Z,1023.47
2016-12-22T15:27:37.067Z,1023.5
2016-12-22T15:28:37.008Z,1023.51
2016-12-22T15:29:36.939Z,1023.52
2016-12-22T15:30:36.876Z,1023.51
2016-12-22T15:31:36.813Z,1023.5
2016-12-22T15:32:36.749Z,1023.48
2016-12-22T15:33:36.687Z,1023.49
2016-12-22T15:34:36.624Z,1023.48
2016-12-22T15:35:36.560Z,1023.44
2016-12-22T15:36:36.500Z,1023.49
2016-12-22T15:37:36.436Z,1023.49
2016-12-22T15:38:36.376Z,1023.5
2016-12-22T15:39:36.310Z,1023.47
2016-12-22T15:40:36.249Z,1023.49
2016-12-22T15:41:36.192Z,1023.48
2016-12-22T15:42:36.122Z,1023.54
2016-12-22T15:43:36.060Z,1023.51
2016-12-22T15:44:35.999Z,1023.5
2016-12-22T15:45:35.933Z,1023.51
2016-12-22T15:46:35.871Z,1023.46
2016-12-22T15:47:35.806Z,1023.46
2016-12-22T15:48:35.750Z,1023.43
2016-12-22T15:49:35.688Z,1023.47
2016-12-22T15:50:35.618Z,1023.48
2016-12-22T15:51:35.555Z,1023.46
2016-12-22T15:52:35.493Z,1023.48
2016-12-22T15:53:35.428Z,1023.5
2016-12-22T15:54:35.365Z,1023.5
2016-12-22T15:55:35.303Z,1023.53
2016-12-22T15:56:35.241Z,1023.49
2016-12-22T15:57:35.176Z,1023.5
2016-12-22T15:58:35.117Z,1023.47
2016-12-22T15:59:35.052Z,1023.51
2016-12-22T16:00:35.000Z,1023.47
2016-12-22T16:01:34.929Z,1023.49
2016-12-22T16:02:34.862Z,1023.51
2016-12-22T16:03:34.798Z,1023.5
2016-12-22T16:04:34.735Z,1023.48
2016-12-22T16:05:34.676Z,1023.5
2016-12-22T16:06:34.616Z,1023.52
2016-12-22T16:07:34.546Z,1023.5
2016-12-22T16:08:34.483Z,1023.51
2016-12-22T16:09:34.419Z,1023.48
2016-12-22T16:10:34.356Z,1023.51
2016-12-22T16:11:34.294Z,1023.51
2016-12-22T16:12:34.236Z,1023.52
2016-12-22T16:13:34.178Z,1023.5
2016-12-22T16:14:34.106Z,1023.48
2016-12-22T16:15:34.042Z,1023.52
2016-12-22T16:16:33.979Z,1023.5
2016-12-22T16:17:33.916Z,1023.52
2016-12-22T16:18:33.866Z,1023.57
2016-12-22T16:19:33.789Z,1023.6
2016-12-22T16:20:33.727Z,1023.63
2016-12-22T16:21:33.664Z,1023.61
2016-12-22T16:22:33.602Z,1023.63
2016-12-22T16:23:33.538Z,1023.64
2016-12-22T16:24:33.489Z,1023.57
2016-12-22T16:25:33.412Z,1023.59
2016-12-22T16:26:33.348Z,1023.59
2016-12-22T16:27:33.286Z,1023.6
2016-12-22T16:28:33.223Z,1023.59
2016-12-22T16:29:33.161Z,1023.59
2016-12-22T16:30:33.097Z,1023.61
2016-12-22T16:31:33.035Z,1023.6
2016-12-22T16:32:32.972Z,1023.64
2016-12-22T16:33:32.908Z,1023.69
2016-12-22T16:34:32.846Z,1023.7
2016-12-22T16:35:32.787Z,1023.67
2016-12-22T16:36:32.721Z,1023.72
2016-12-22T16:37:32.656Z,1023.74
2016-12-22T16:38:32.593Z,1023.74
2016-12-22T16:39:32.530Z,1023.73
2016-12-22T16:40:32.468Z,1023.74
2016-12-22T16:41:32.404Z,1023.73
2016-12-22T16:42:32.341Z,1023.73
2016-12-22T16:43:32.281Z,1023.72
2016-12-22T16:44:32.216Z,1023.74
2016-12-22T16:45:32.152Z,1023.72
2016-12-22T16:46:32.090Z,1023.76
2016-12-22T16:47:32.028Z,1023.8
2016-12-22T16:48:31.965Z,1023.82
2016-12-22T16:49:31.901Z,1023.86
2016-12-22T16:50:31.839Z,1023.86
2016-12-22T16:51:31.779Z,1023.89
2016-12-22T16:52:31.723Z,1023.89
2016-12-22T16:53:31.657Z,1023.87
2016-12-22T16:54:31.595Z,1023.87
2016-12-22T16:55:31.524Z,1023.88
2016-12-22T16:56:31.474Z,1023.84
2016-12-22T16:57:31.405Z,1023.83
2016-12-22T16:58:31.339Z,1023.86
2016-12-22T16:59:31.273Z,1023.83
2016-12-22T17:00:31.210Z,1023.81
2016-12-22T17:01:31.147Z,1023.81
2016-12-22T17:02:31.085Z,1023.8
2016-12-22T17:03:31.021Z,1023.8
2016-12-22T17:04:30.959Z,1023.78
2016-12-22T17:05:30.896Z,1023.82
2016-12-22T17:06:30.832Z,1023.86
2016-12-22T17:07:30.770Z,1023.88
2016-12-22T17:08:30.707Z,1023.88
2016-12-22T17:09:30.644Z,1023.88
2016-12-22T17:10:30.581Z,1023.91
2016-12-22T17:11:30.520Z,1023.98
2016-12-22T17:12:30.457Z,1024.01
2016-12-22T17:13:30.393Z,1024.02
2016-12-22T17:14:30.331Z,1024
2016-12-22T17:15:30.268Z,1024.01
2016-12-22T17:16:30.207Z,1024.04
2016-12-22T17:17:30.142Z,1024.08
2016-12-22T17:18:30.084Z,1024.03
2016-12-22T17:19:30.016Z,1024.02
2016-12-22T17:20:29.954Z,1024.04
2016-12-22T17:21:29.902Z,1024.02
2016-12-22T17:22:29.828Z,1024.03
2016-12-22T17:23:29.766Z,1024.02
2016-12-22T17:24:29.702Z,1024.07
2016-12-22T17:25:29.640Z,1024.06
2016-12-22T17:26:29.577Z,1024.1
2016-12-22T17:27:29.525Z,1024.1
2016-12-22T17:28:29.451Z,1024.14
2016-12-22T17:29:29.392Z,1024.1
2016-12-22T17:30:29.327Z,1024.12
2016-12-22T17:31:29.264Z,1024.16
2016-12-22T17:32:29.200Z,1024.17
2016-12-22T17:33:29.141Z,1024.16
2016-12-22T17:34:29.075Z,1024.14
2016-12-22T17:35:29.012Z,1024.16
2016-12-22T17:36:28.949Z,1024.14
2016-12-22T17:37:28.887Z,1024.13
2016-12-22T17:38:28.825Z,1024.17
2016-12-22T17:39:28.761Z,1024.17
2016-12-22T17:40:28.698Z,1024.14
2016-12-22T17:41:28.636Z,1024.15
2016-12-22T17:42:28.573Z,1024.18
2016-12-22T17:43:28.510Z,1024.17
2016-12-22T17:44:28.448Z,1024.15
2016-12-22T17:45:28.537Z,1024.15
2016-12-22T17:46:28.322Z,1024.14
2016-12-22T17:47:28.259Z,1024.15
2016-12-22T17:48:28.196Z,1024.13
2016-12-22T17:49:28.134Z,1024.19
2016-12-22T17:50:28.070Z,1024.16
2016-12-22T17:51:28.007Z,1024.17
2016-12-22T17:52:27.948Z,1024.25
2016-12-22T17:53:27.883Z,1024.24
2016-12-22T17:54:27.820Z,1024.22
2016-12-22T17:55:27.757Z,1024.2
2016-12-22T17:56:27.697Z,1024.21
2016-12-22T17:57:27.631Z,1024.2
2016-12-22T17:58:27.576Z,1024.2
2016-12-22T17:59:27.511Z,1024.18
2016-12-22T18:00:27.450Z,1024.17
2016-12-22T18:01:27.379Z,1024.18
2016-12-22T18:02:27.317Z,1024.15
2016-12-22T18:03:27.258Z,1024.16
2016-12-22T18:04:27.192Z,1024.23
2016-12-22T18:05:27.128Z,1024.21
2016-12-22T18:06:27.066Z,1024.2
2016-12-22T18:07:27.006Z,1024.19
2016-12-22T18:08:26.940Z,1024.18
2016-12-22T18:09:26.891Z,1024.18
2016-12-22T18:10:26.824Z,1024.13
2016-12-22T18:11:26.752Z,1024.15
2016-12-22T18:12:26.695Z,1024.14
2016-12-22T18:13:26.627Z,1024.14
2016-12-22T18:14:26.564Z,1024.16
2016-12-22T18:15:26.507Z,1024.15
2016-12-22T18:16:26.439Z,1024.15
2016-12-22T18:17:26.398Z,1024.2
2016-12-22T18:18:26.317Z,1024.25
2016-12-22T18:19:26.249Z,1024.28
2016-12-22T18:20:26.188Z,1024.25
2016-12-22T18:21:26.124Z,1024.22
2016-12-22T18:22:26.062Z,1024.14
2016-12-22T18:23:25.999Z,1024.13
2016-12-22T18:24:25.936Z,1024.15
2016-12-22T18:25:25.875Z,1024.15
2016-12-22T18:26:25.811Z,1024.12
2016-12-22T18:27:25.748Z,1024.07
2016-12-22T18:28:25.685Z,1024.09
2016-12-22T18:29:25.622Z,1024.07
2016-12-22T18:30:25.562Z,1024.1
2016-12-22T18:31:25.497Z,1024.08
2016-12-22T18:32:25.434Z,1024.08
2016-12-22T18:33:25.371Z,1024.08
2016-12-22T18:34:25.308Z,1024.07
2016-12-22T18:35:25.246Z,1024.06
2016-12-22T18:36:25.183Z,1024.06
2016-12-22T18:37:25.121Z,1024.09
2016-12-22T18:38:25.057Z,1024.08
2016-12-22T18:39:24.994Z,1024.09
2016-12-22T18:40:24.932Z,1024.11
2016-12-22T18:41:24.870Z,1024.16
2016-12-22T18:42:24.806Z,1024.22
2016-12-22T18:43:24.745Z,1024.25
2016-12-22T18:44:24.692Z,1024.3
2016-12-22T18:45:24.623Z,1024.32
2016-12-22T18:46:24.554Z,1024.33
2016-12-22T18:47:24.493Z,1024.31
2016-12-22T18:48:24.430Z,1024.25
2016-12-22T18:49:24.367Z,1024.28
2016-12-22T18:50:24.304Z,1024.28
2016-12-22T18:51:24.243Z,1024.33
2016-12-22T18:52:24.179Z,1024.35
2016-12-22T18:53:24.118Z,1024.36
2016-12-22T18:54:24.053Z,1024.41
2016-12-22T18:55:23.996Z,1024.41
2016-12-22T18:56:23.929Z,1024.44
2016-12-22T18:57:23.864Z,1024.42
2016-12-22T18:58:23.809Z,1024.38
2016-12-22T18:59:23.738Z,1024.38
2016-12-22T19:00:23.676Z,1024.39
2016-12-22T19:01:23.624Z,1024.38
2016-12-22T19:02:23.550Z,1024.36
2016-12-22T19:03:23.495Z,1024.36
2016-12-22T19:04:23.425Z,1024.37
2016-12-22T19:05:23.362Z,1024.44
2016-12-22T19:06:23.300Z,1024.45
2016-12-22T19:07:23.235Z,1024.48
2016-12-22T19:08:23.173Z,1024.45
2016-12-22T19:09:23.111Z,1024.48
2016-12-22T19:10:23.048Z,1024.47
2016-12-22T19:11:22.989Z,1024.45
2016-12-22T19:12:22.922Z,1024.51
2016-12-22T19:13:22.859Z,1024.52
2016-12-22T19:14:22.800Z,1024.52
2016-12-22T19:15:22.739Z,1024.51
2016-12-22T19:16:22.674Z,1024.49
2016-12-22T19:17:22.612Z,1024.51
2016-12-22T19:18:22.545Z,1024.49
2016-12-22T19:19:22.482Z,1024.49
2016-12-22T19:20:22.420Z,1024.48
2016-12-22T19:21:22.356Z,1024.49
2016-12-22T19:22:22.293Z,1024.51
2016-12-22T19:23:22.231Z,1024.56
2016-12-22T19:24:22.174Z,1024.53
2016-12-22T19:25:22.104Z,1024.54
2016-12-22T19:26:22.044Z,1024.54
2016-12-22T19:27:21.981Z,1024.54
2016-12-22T19:28:21.917Z,1024.56
2016-12-22T19:29:21.853Z,1024.58
2016-12-22T19:30:21.792Z,1024.58
2016-12-22T19:31:21.728Z,1024.57
2016-12-22T19:32:21.666Z,1024.51
2016-12-22T19:33:21.602Z,1024.55
2016-12-22T19:34:21.539Z,1024.5
2016-12-22T19:35:21.476Z,1024.52
2016-12-22T19:36:21.412Z,1024.55
2016-12-22T19:37:21.350Z,1024.52
2016-12-22T19:38:21.287Z,1024.53
2016-12-22T19:39:21.227Z,1024.51
2016-12-22T19:40:21.161Z,1024.52
2016-12-22T19:41:21.099Z,1024.53
2016-12-22T19:42:21.036Z,1024.51
2016-12-22T19:43:20.973Z,1024.52
2016-12-22T19:44:20.910Z,1024.53
2016-12-22T19:45:20.848Z,1024.53
2016-12-22T19:46:20.785Z,1024.54
2016-12-22T19:47:20.726Z,1024.52
2016-12-22T19:48:20.659Z,1024.52
2016-12-22T19:49:20.596Z,1024.53
2016-12-22T19:50:20.533Z,1024.54
2016-12-22T19:51:20.470Z,1024.56
2016-12-22T19:52:20.407Z,1024.53
2016-12-22T19:53:20.355Z,1024.5
2016-12-22T19:54:20.281Z,1024.54
2016-12-22T19:55:20.222Z,1024.57
2016-12-22T19:56:20.157Z,1024.59
2016-12-22T19:57:20.093Z,1024.56
2016-12-22T19:58:20.029Z,1024.57
2016-12-22T19:59:19.967Z,1024.62
2016-12-22T20:00:19.904Z,1024.61
2016-12-22T20:01:19.842Z,1024.6
2016-12-22T20:02:19.778Z,1024.66
2016-12-22T20:03:19.716Z,1024.68
2016-12-22T20:04:19.653Z,1024.65
2016-12-22T20:05:19.589Z,1024.66
2016-12-22T20:06:19.528Z,1024.64
2016-12-22T20:07:19.464Z,1024.66
2016-12-22T20:08:19.407Z,1024.68
2016-12-22T20:09:19.338Z,1024.72
2016-12-22T20:10:19.276Z,1024.69
2016-12-22T20:11:19.212Z,1024.7
2016-12-22T20:12:19.152Z,1024.69
2016-12-22T20:13:19.086Z,1024.72
2016-12-22T20:14:19.023Z,1024.72
2016-12-22T20:15:18.972Z,1024.73
2016-12-22T20:16:18.898Z,1024.74
2016-12-22T20:17:18.835Z,1024.73
2016-12-22T20:18:18.772Z,1024.72
2016-12-22T20:19:18.709Z,1024.76
2016-12-22T20:20:18.646Z,1024.83
2016-12-22T20:21:18.583Z,1024.8
2016-12-22T20:22:18.521Z,1024.79
2016-12-22T20:23:18.458Z,1024.79
2016-12-22T20:24:18.396Z,1024.84
2016-12-22T20:25:18.333Z,1024.84
2016-12-22T20:26:18.271Z,1024.84
2016-12-22T20:27:18.210Z,1024.86
2016-12-22T20:28:18.144Z,1024.9
2016-12-22T20:29:18.081Z,1024.9
2016-12-22T20:30:18.019Z,1024.83
2016-12-22T20:31:17.963Z,1024.91
2016-12-22T20:32:17.893Z,1024.89
2016-12-22T20:33:17.829Z,1024.88
2016-12-22T20:34:17.768Z,1024.88
2016-12-22T20:35:17.704Z,1024.89
2016-12-22T20:36:17.642Z,1024.88
2016-12-22T20:37:17.595Z,1024.87
2016-12-22T20:38:17.516Z,1024.89
2016-12-22T20:39:17.457Z,1024.88
2016-12-22T20:40:17.596Z,1024.88
2016-12-22T20:41:17.336Z,1024.92
2016-12-22T20:42:17.267Z,1024.92
2016-12-22T20:43:17.211Z,1024.94
2016-12-22T20:44:17.140Z,1024.96
2016-12-22T20:45:17.074Z,1024.97
2016-12-22T20:46:17.013Z,1024.98
2016-12-22T20:47:16.951Z,1024.99
2016-12-22T20:48:16.905Z,1025.01
2016-12-22T20:49:16.824Z,1025.03
2016-12-22T20:50:16.764Z,1025.03
2016-12-22T20:51:16.698Z,1025.03
2016-12-22T20:52:16.638Z,1025.02
2016-12-22T20:53:16.590Z,1025.04
2016-12-22T20:54:16.509Z,1025.05
2016-12-22T20:55:16.446Z,1025.04
2016-12-22T20:56:16.384Z,1025.06
2016-12-22T20:57:16.328Z,1025.03
2016-12-22T20:58:16.257Z,1024.99
2016-12-22T20:59:16.195Z,1024.94
2016-12-22T21:00:16.138Z,1024.95
2016-12-22T21:01:16.070Z,1024.93
2016-12-22T21:02:16.006Z,1024.91
2016-12-22T21:03:15.943Z,1024.92
2016-12-22T21:04:15.880Z,1024.92
2016-12-22T21:05:15.818Z,1024.92
2016-12-22T21:06:15.756Z,1024.91
2016-12-22T21:07:15.691Z,1024.91
2016-12-22T21:08:15.629Z,1024.92
2016-12-22T21:09:15.569Z,1024.93
2016-12-22T21:10:15.503Z,1024.99
2016-12-22T21:11:15.442Z,1024.96
2016-12-22T21:12:15.377Z,1024.96
2016-12-22T21:13:15.314Z,1024.93
2016-12-22T21:14:15.252Z,1024.99
2016-12-22T21:15:15.188Z,1024.98
2016-12-22T21:16:15.125Z,1025.01
2016-12-22T21:17:15.063Z,1025
2016-12-22T21:18:15.000Z,1025.04
2016-12-22T21:19:14.937Z,1025.06
2016-12-22T21:20:14.877Z,1025.06
2016-12-22T21:21:14.812Z,1025.03
2016-12-22T21:22:14.749Z,1025.01
2016-12-22T21:23:14.687Z,1025.05
2016-12-22T21:24:14.623Z,1025.07
2016-12-22T21:25:14.560Z,1025.05
2016-12-22T21:26:14.496Z,1025.08
2016-12-22T21:27:14.434Z,1025.09
2016-12-22T21:28:14.371Z,1025.12
2016-12-22T21:29:14.307Z,1025.15
2016-12-22T21:30:14.245Z,1025.12
2016-12-22T21:31:14.182Z,1025.1
2016-12-22T21:32:14.121Z,1025.1
2016-12-22T21:33:14.056Z,1025.09
2016-12-22T21:34:13.993Z,1025.08
2016-12-22T21:35:13.937Z,1025.07
2016-12-22T21:36:13.870Z,1025.04
2016-12-22T21:37:13.804Z,1025.04
2016-12-22T21:38:13.743Z,1025.05
2016-12-22T21:39:13.680Z,1025.06
2016-12-22T21:40:13.615Z,1025.07
2016-12-22T21:41:13.552Z,1025.11
2016-12-22T21:42:13.490Z,1025.1
2016-12-22T21:43:13.427Z,1025.13
2016-12-22T21:44:13.363Z,1025.14
2016-12-22T21:45:13.300Z,1025.12
2016-12-22T21:46:13.239Z,1025.16
2016-12-22T21:47:13.182Z,1025.16
2016-12-22T21:48:13.121Z,1025.18
2016-12-22T21:49:13.049Z,1025.18
2016-12-22T21:50:12.987Z,1025.2
2016-12-22T21:51:12.924Z,1025.15
2016-12-22T21:52:12.860Z,1025.15
2016-12-22T21:53:12.798Z,1025.15
2016-12-22T21:54:12.735Z,1025.13
2016-12-22T21:55:12.674Z,1025.14
2016-12-22T21:56:12.609Z,1025.16
2016-12-22T21:57:12.547Z,1025.14
2016-12-22T21:58:12.488Z,1025.14
2016-12-22T21:59:12.425Z,1025.15
2016-12-22T22:00:12.459Z,1025.17
2016-12-22T22:01:12.297Z,1025.16
2016-12-22T22:02:12.233Z,1025.2
2016-12-22T22:03:12.171Z,1025.22
2016-12-22T22:04:12.108Z,1025.18
2016-12-22T22:05:12.045Z,1025.21
2016-12-22T22:06:11.982Z,1025.18
2016-12-22T22:07:11.924Z,1025.18
2016-12-22T22:08:11.858Z,1025.19
2016-12-22T22:09:11.794Z,1025.24
2016-12-22T22:10:11.731Z,1025.21
2016-12-22T22:11:11.669Z,1025.3
2016-12-22T22:12:11.606Z,1025.25
2016-12-22T22:13:11.542Z,1025.29
2016-12-22T22:14:11.480Z,1025.31
2016-12-22T22:15:11.417Z,1025.32
2016-12-22T22:16:11.354Z,1025.34
2016-12-22T22:17:11.299Z,1025.35
2016-12-22T22:18:11.228Z,1025.37
2016-12-22T22:19:11.166Z,1025.36
2016-12-22T22:20:11.103Z,1025.33
2016-12-22T22:21:11.041Z,1025.38
2016-12-22T22:22:10.977Z,1025.33
2016-12-22T22:23:10.916Z,1025.37
2016-12-22T22:24:10.851Z,1025.38
2016-12-22T22:25:10.788Z,1025.41
2016-12-22T22:26:10.726Z,1025.42
2016-12-22T22:27:10.663Z,1025.42
2016-12-22T22:28:10.600Z,1025.47
2016-12-22T22:29:10.538Z,1025.43
2016-12-22T22:30:10.474Z,1025.46
2016-12-22T22:31:10.411Z,1025.46
2016-12-22T22:32:10.349Z,1025.44
2016-12-22T22:33:10.287Z,1025.41
2016-12-22T22:34:10.223Z,1025.39
2016-12-22T22:35:10.159Z,1025.41
2016-12-22T22:36:10.098Z,1025.39
2016-12-22T22:37:10.034Z,1025.38
2016-12-22T22:38:09.972Z,1025.39
2016-12-22T22:39:09.917Z,1025.37
2016-12-22T22:40:09.846Z,1025.41
2016-12-22T22:41:09.783Z,1025.43
2016-12-22T22:42:09.720Z,1025.51
2016-12-22T22:43:09.657Z,1025.46
2016-12-22T22:44:09.595Z,1025.47
2016-12-22T22:45:09.532Z,1025.47
2016-12-22T22:46:09.468Z,1025.47
2016-12-22T22:47:09.417Z,1025.49
2016-12-22T22:48:09.361Z,1025.52
2016-12-22T22:49:09.290Z,1025.48
2016-12-22T22:50:09.217Z,1025.45
2016-12-22T22:51:09.155Z,1025.43
2016-12-22T22:52:09.096Z,1025.42
2016-12-22T22:53:09.034Z,1025.38
2016-12-22T22:54:08.983Z,1025.35
2016-12-22T22:55:08.918Z,1025.36
2016-12-22T22:56:08.841Z,1025.34
2016-12-22T22:57:08.779Z,1025.38
2016-12-22T22:58:08.726Z,1025.34
2016-12-22T22:59:08.653Z,1025.37
2016-12-22T23:00:08.592Z,1025.43
2016-12-22T23:01:08.531Z,1025.44
2016-12-22T23:02:08.468Z,1025.5